Time;durP1;ratioP1;P1;durP2;ratioP2;P2;SDS_P1;SDS_P2;PMS_P1;PMS_P2;Temp;Humidity;BMP_temperature;BMP_pressure;BME280_temperature;BME280_humidity;BME280_pressure;Samples;Min_cycle;Max_cycle;Signal;HPM_P1;HPM_P2
2022/01/09 00:01:43;;;;;;;13.43;10.13;;;4.40;99.90;;;;;;5060559;28;20041;-36
2022/01/09 00:04:09;;;;;;;12.43;10.13;;;4.40;99.90;;;;;;5070534;28;20036;-38
2022/01/09 00:06:35;;;;;;;13.20;10.27;;;4.40;99.90;;;;;;5057064;28;20059;-38
2022/01/09 00:09:00;;;;;;;11.20;9.70;;;4.40;99.90;;;;;;5050396;28;20060;-36
2022/01/09 00:11:27;;;;;;;13.90;10.93;;;4.40;99.90;;;;;;5071231;28;20045;-38
2022/01/09 00:13:56;;;;;;;12.37;10.50;;;4.40;99.90;;;;;;5070137;28;20049;-37
2022/01/09 00:16:23;;;;;;;11.33;10.10;;;4.40;99.90;;;;;;5060251;28;20423;-37
2022/01/09 00:18:50;;;;;;;14.87;11.43;;;4.40;99.90;;;;;;5066192;28;20478;-37
2022/01/09 00:21:16;;;;;;;11.07;9.67;;;4.40;99.90;;;;;;5071213;28;20400;-37
2022/01/09 00:23:42;;;;;;;14.60;10.00;;;4.30;99.90;;;;;;5069852;28;20496;-37
2022/01/09 00:26:09;;;;;;;13.07;10.30;;;4.40;99.90;;;;;;5047577;28;20458;-37
2022/01/09 00:28:35;;;;;;;12.63;10.73;;;4.40;99.90;;;;;;5042669;28;20131;-37
2022/01/09 00:31:01;;;;;;;14.30;11.13;;;4.40;99.90;;;;;;5085410;28;20105;-37
2022/01/09 00:33:27;;;;;;;14.00;11.50;;;4.40;99.90;;;;;;5090283;28;20048;-38
2022/01/09 00:35:53;;;;;;;15.03;11.80;;;4.40;99.90;;;;;;5084334;28;20045;-37
2022/01/09 00:38:19;;;;;;;12.90;11.10;;;4.30;99.90;;;;;;5054614;28;20492;-38
2022/01/09 00:40:46;;;;;;;12.83;11.20;;;4.40;99.90;;;;;;5070628;28;20036;-37
2022/01/09 00:43:12;;;;;;;13.83;11.93;;;4.40;99.90;;;;;;5069974;28;20037;-37
2022/01/09 00:45:39;;;;;;;16.07;12.27;;;4.40;99.90;;;;;;5052517;28;20091;-35
2022/01/09 00:48:06;;;;;;;12.20;10.33;;;4.40;99.90;;;;;;5035368;28;20046;-37
2022/01/09 00:50:33;;;;;;;12.07;10.27;;;4.40;99.90;;;;;;5069710;28;20048;-37
2022/01/09 00:52:59;;;;;;;11.70;10.07;;;4.40;99.90;;;;;;5083600;28;20055;-38
2022/01/09 00:55:25;;;;;;;14.60;11.83;;;4.40;99.90;;;;;;5090506;28;20407;-37
2022/01/09 00:57:50;;;;;;;19.03;14.73;;;4.40;99.90;;;;;;5074217;28;20078;-38
2022/01/09 01:00:16;;;;;;;13.03;11.47;;;4.40;99.90;;;;;;5090120;28;20134;-36
2022/01/09 01:02:42;;;;;;;15.00;11.57;;;4.40;99.90;;;;;;5069613;28;20052;-37
2022/01/09 01:05:09;;;;;;;15.50;11.97;;;4.40;99.90;;;;;;5070135;28;20260;-38
2022/01/09 01:07:35;;;;;;;17.40;13.30;;;4.40;99.90;;;;;;5035841;28;20083;-36
2022/01/09 01:10:01;;;;;;;15.40;12.57;;;4.40;99.90;;;;;;5070358;28;20079;-37
2022/01/09 01:12:28;;;;;;;16.23;13.27;;;4.40;99.90;;;;;;5069374;28;20525;-37
2022/01/09 01:14:54;;;;;;;12.37;10.97;;;4.50;99.90;;;;;;5069928;28;20059;-37
2022/01/09 01:17:20;;;;;;;21.70;14.50;;;4.50;99.90;;;;;;5053388;28;20045;-36
2022/01/09 01:19:46;;;;;;;26.73;16.90;;;4.40;99.90;;;;;;5069037;28;20051;-38
2022/01/09 01:22:13;;;;;;;18.53;13.33;;;4.50;99.90;;;;;;5069285;28;20511;-37
2022/01/09 01:24:39;;;;;;;13.57;10.80;;;4.50;99.90;;;;;;5051388;28;20059;-37
2022/01/09 01:27:05;;;;;;;13.93;10.23;;;4.50;99.90;;;;;;5035747;28;20048;-37
2022/01/09 01:29:31;;;;;;;12.10;10.03;;;4.50;99.90;;;;;;5053716;28;20044;-37
2022/01/09 01:31:57;;;;;;;13.33;11.43;;;4.50;99.90;;;;;;5089762;28;20112;-37
2022/01/09 01:34:23;;;;;;;13.03;11.13;;;4.50;99.90;;;;;;5070825;28;20452;-37
2022/01/09 01:36:48;;;;;;;12.80;11.03;;;4.50;99.90;;;;;;5059540;28;20059;-37
2022/01/09 01:39:14;;;;;;;13.03;10.43;;;4.50;99.90;;;;;;5069309;28;20075;-37
2022/01/09 01:41:40;;;;;;;14.70;12.23;;;4.50;99.90;;;;;;5069601;28;20091;-37
2022/01/09 01:44:10;;;;;;;19.07;16.00;;;4.40;99.90;;;;;;5068694;28;20119;-37
2022/01/09 01:46:36;;;;;;;13.57;11.63;;;4.50;99.90;;;;;;5055731;28;20155;-37
2022/01/09 01:49:02;;;;;;;13.37;11.83;;;4.50;99.90;;;;;;5066594;28;20055;-36
2022/01/09 01:51:28;;;;;;;14.67;12.20;;;4.50;99.90;;;;;;5052353;28;20198;-36
2022/01/09 01:53:55;;;;;;;12.93;10.83;;;4.50;99.90;;;;;;5088986;28;20131;-37
2022/01/09 01:56:24;;;;;;;13.20;11.47;;;4.50;99.90;;;;;;5078114;28;20081;-37
2022/01/09 01:58:51;;;;;;;13.50;11.70;;;4.50;99.90;;;;;;5085311;28;20048;-37
2022/01/09 02:01:17;;;;;;;12.83;11.50;;;4.50;99.90;;;;;;5061934;28;20097;-38
2022/01/09 02:03:43;;;;;;;13.80;11.83;;;4.50;99.90;;;;;;5049513;28;20059;-37
2022/01/09 02:06:11;;;;;;;13.90;12.33;;;4.50;99.90;;;;;;5062457;28;20044;-39
2022/01/09 02:08:37;;;;;;;13.63;12.13;;;4.50;99.90;;;;;;5061711;28;20060;-37
2022/01/09 02:11:03;;;;;;;13.77;12.07;;;4.50;99.90;;;;;;5068860;28;20049;-36
2022/01/09 02:13:29;;;;;;;14.80;12.53;;;4.50;99.90;;;;;;5049915;28;20059;-37
2022/01/09 02:15:58;;;;;;;17.27;12.97;;;4.50;99.90;;;;;;5069033;28;20093;-38
2022/01/09 02:18:24;;;;;;;14.37;12.50;;;4.50;99.90;;;;;;5051688;28;20488;-37
2022/01/09 02:20:52;;;;;;;15.07;12.30;;;4.50;99.90;;;;;;5068119;28;20055;-38
2022/01/09 02:23:19;;;;;;;14.97;13.07;;;4.50;99.90;;;;;;5050062;28;20048;-37
2022/01/09 02:25:46;;;;;;;14.87;12.67;;;4.50;99.90;;;;;;5068369;28;20056;-37
2022/01/09 02:28:14;;;;;;;15.47;13.27;;;4.50;99.90;;;;;;5052343;28;20093;-37
2022/01/09 02:30:40;;;;;;;15.57;12.83;;;4.50;99.90;;;;;;5080178;28;20040;-37
2022/01/09 02:33:09;;;;;;;16.33;12.43;;;4.50;99.90;;;;;;5088374;28;20040;-37
2022/01/09 02:35:37;;;;;;;15.43;12.77;;;4.50;99.90;;;;;;5066245;28;20553;-37
2022/01/09 02:38:04;;;;;;;14.23;12.43;;;4.50;99.90;;;;;;5052287;28;20124;-37
2022/01/09 02:40:30;;;;;;;16.47;12.23;;;4.50;99.90;;;;;;5068359;28;20098;-37
2022/01/09 02:42:56;;;;;;;16.27;11.47;;;4.60;99.90;;;;;;5049242;28;20522;-37
2022/01/09 02:45:24;;;;;;;14.87;11.40;;;4.60;99.90;;;;;;5068130;28;20519;-36
2022/01/09 02:47:52;;;;;;;15.37;11.47;;;4.60;99.90;;;;;;5052113;28;20048;-37
2022/01/09 02:52:55;;;;;;;17.17;10.23;;;4.80;99.90;;;;;;5062123;28;20048;-37
2022/01/09 02:55:23;;;;;;;17.57;10.50;;;4.70;99.90;;;;;;5088708;28;20130;-37
2022/01/09 02:57:52;;;;;;;20.73;10.03;;;4.70;99.90;;;;;;5072145;28;20430;-37
2022/01/09 03:00:24;;;;;;;17.83;9.23;;;4.70;99.90;;;;;;5069402;28;20048;-38
2022/01/09 03:02:50;;;;;;;19.73;9.43;;;4.80;99.90;;;;;;5049047;28;20559;-37
2022/01/09 03:05:16;;;;;;;19.50;9.10;;;4.80;99.90;;;;;;5067999;28;20047;-37
2022/01/09 03:07:43;;;;;;;19.67;8.20;;;4.80;99.90;;;;;;5033470;28;20057;-37
2022/01/09 03:10:11;;;;;;;28.43;8.20;;;4.90;99.90;;;;;;5068166;28;20460;-37
2022/01/09 03:12:37;;;;;;;23.77;7.27;;;4.80;99.90;;;;;;5067303;28;20064;-37
2022/01/09 03:15:04;;;;;;;25.73;7.80;;;4.80;99.90;;;;;;5049575;28;20563;-37
2022/01/09 03:17:30;;;;;;;24.07;6.57;;;4.90;99.90;;;;;;5032850;28;20499;-37
2022/01/09 03:19:56;;;;;;;27.90;6.30;;;4.90;99.90;;;;;;5049711;28;20056;-37
2022/01/09 03:22:21;;;;;;;32.30;5.70;;;5.00;99.90;;;;;;5067274;28;20068;-36
2022/01/09 03:24:49;;;;;;;28.77;5.70;;;5.00;99.90;;;;;;5067974;28;20597;-38
2022/01/09 03:27:15;;;;;;;34.93;6.73;;;5.00;99.90;;;;;;5051570;28;20044;-37
2022/01/09 03:29:41;;;;;;;41.37;6.30;;;5.00;99.90;;;;;;5070640;28;20040;-38
2022/01/09 03:32:08;;;;;;;49.47;7.17;;;5.10;99.90;;;;;;5087461;28;20055;-37
2022/01/09 03:34:35;;;;;;;49.10;7.83;;;5.10;99.90;;;;;;5088071;28;20036;-37
2022/01/09 03:37:01;;;;;;;54.20;8.30;;;5.10;99.90;;;;;;5056348;28;20475;-37
2022/01/09 03:39:26;;;;;;;63.27;9.07;;;5.20;99.90;;;;;;5067758;28;20083;-38
2022/01/09 03:41:54;;;;;;;69.47;10.87;;;5.20;99.90;;;;;;5067658;28;20593;-37
2022/01/09 03:44:21;;;;;;;83.53;10.73;;;5.20;99.90;;;;;;5048995;28;20048;-37
2022/01/09 03:46:46;;;;;;;65.23;10.47;;;5.30;99.90;;;;;;5052333;28;20036;-38
2022/01/09 03:49:12;;;;;;;79.20;10.63;;;5.30;99.90;;;;;;5066587;28;20048;-36
2022/01/09 03:51:38;;;;;;;70.77;9.97;;;5.30;99.90;;;;;;5052081;28;20048;-37
2022/01/09 03:54:06;;;;;;;61.37;10.07;;;5.40;99.90;;;;;;5068725;28;20122;-37
2022/01/09 03:56:32;;;;;;;73.37;10.10;;;5.40;99.90;;;;;;5073494;28;20131;-37
2022/01/09 03:58:58;;;;;;;55.13;9.53;;;5.40;99.90;;;;;;5085165;28;20105;-35
2022/01/09 04:01:24;;;;;;;58.43;9.50;;;5.50;99.90;;;;;;5077388;28;20258;-37
2022/01/09 04:03:50;;;;;;;58.30;9.27;;;5.40;99.90;;;;;;5066658;28;20041;-37
2022/01/09 04:06:17;;;;;;;66.07;8.97;;;5.50;99.90;;;;;;5038669;28;20056;-38
2022/01/09 04:08:42;;;;;;;47.67;8.83;;;5.50;99.90;;;;;;5061897;28;20075;-38
2022/01/09 04:11:10;;;;;;;51.67;9.17;;;5.50;99.90;;;;;;5067717;28;20049;-38
2022/01/09 04:13:39;;;;;;;56.67;9.00;;;5.50;99.90;;;;;;5066626;28;20052;-36
2022/01/09 04:16:05;;;;;;;54.20;8.23;;;5.60;99.90;;;;;;5067572;28;20041;-37
2022/01/09 04:18:31;;;;;;;50.63;8.50;;;5.60;99.90;;;;;;5050457;28;20044;-37
2022/01/09 04:20:58;;;;;;;56.30;7.53;;;5.60;99.90;;;;;;5067666;28;20072;-37
2022/01/09 04:23:24;;;;;;;49.83;8.20;;;5.60;99.90;;;;;;5066041;28;20480;-37
2022/01/09 04:25:51;;;;;;;50.50;7.73;;;5.60;99.90;;;;;;5068055;28;20072;-37
2022/01/09 04:28:17;;;;;;;61.17;8.50;;;5.60;99.90;;;;;;5054450;28;20159;-37
2022/01/09 04:30:44;;;;;;;45.07;8.00;;;5.60;99.90;;;;;;5082543;28;20526;-37
2022/01/09 04:33:10;;;;;;;43.33;7.43;;;5.60;99.90;;;;;;5072174;28;20052;-37
2022/01/09 04:35:37;;;;;;;55.50;8.67;;;5.70;99.90;;;;;;5086712;28;20032;-38
2022/01/09 04:38:03;;;;;;;46.63;7.63;;;5.70;99.90;;;;;;5054653;28;20048;-38
2022/01/09 04:40:29;;;;;;;53.37;8.27;;;5.70;99.90;;;;;;5070871;28;20048;-36
2022/01/09 04:42:58;;;;;;;41.97;7.20;;;5.70;99.90;;;;;;5069724;28;20060;-38
2022/01/09 04:45:26;;;;;;;46.73;7.50;;;5.70;99.90;;;;;;5070686;28;20166;-38
2022/01/09 04:47:53;;;;;;;55.10;7.90;;;5.70;99.90;;;;;;5053906;28;20052;-37
2022/01/09 04:50:24;;;;;;;54.40;7.50;;;5.70;99.90;;;;;;5070419;28;20056;-37
2022/01/09 04:52:54;;;;;;;43.70;8.10;;;5.70;99.90;;;;;;5082259;28;20044;-38
2022/01/09 04:55:20;;;;;;;41.83;6.87;;;5.70;99.90;;;;;;5090630;28;20055;-38
2022/01/09 04:57:46;;;;;;;45.60;7.00;;;5.70;99.90;;;;;;5073771;28;20056;-38
2022/01/09 05:00:12;;;;;;;39.43;6.77;;;5.70;99.90;;;;;;5090521;28;20516;-38
2022/01/09 05:02:38;;;;;;;47.10;7.00;;;5.70;99.90;;;;;;5069683;28;20072;-38
2022/01/09 05:05:06;;;;;;;39.97;7.00;;;5.70;99.90;;;;;;5070451;28;20192;-38
2022/01/09 05:07:32;;;;;;;41.47;7.00;;;5.70;99.90;;;;;;5053125;28;20040;-37
2022/01/09 05:09:58;;;;;;;51.00;7.03;;;5.70;99.90;;;;;;5070076;28;20043;-37
2022/01/09 05:12:23;;;;;;;40.40;6.33;;;5.70;99.90;;;;;;5051232;28;20420;-38
2022/01/09 05:14:49;;;;;;;49.40;7.33;;;5.70;99.90;;;;;;5070004;28;20494;-37
2022/01/09 05:17:15;;;;;;;40.53;6.90;;;5.70;99.90;;;;;;5053573;28;20040;-38
2022/01/09 05:19:41;;;;;;;38.20;5.90;;;5.70;99.90;;;;;;5048137;28;20067;-38
2022/01/09 05:22:08;;;;;;;42.07;6.97;;;5.70;99.90;;;;;;5049400;28;20076;-36
2022/01/09 05:24:37;;;;;;;40.23;6.43;;;5.70;99.90;;;;;;5048500;28;20127;-38
2022/01/09 05:27:03;;;;;;;38.30;6.67;;;5.70;99.90;;;;;;5034579;28;20618;-38
2022/01/09 05:29:29;;;;;;;34.83;6.43;;;5.70;99.90;;;;;;5050500;28;20053;-38
2022/01/09 05:31:54;;;;;;;41.63;6.40;;;5.70;99.90;;;;;;5069894;28;20037;-37
2022/01/09 05:34:20;;;;;;;43.13;6.83;;;5.70;99.90;;;;;;5067529;28;20045;-37
2022/01/09 05:36:46;;;;;;;44.10;6.27;;;5.70;99.90;;;;;;5040217;28;20065;-37
2022/01/09 05:39:11;;;;;;;40.47;6.67;;;5.60;99.90;;;;;;5049340;28;20087;-37
2022/01/09 05:41:39;;;;;;;40.13;6.23;;;5.60;99.90;;;;;;5049846;28;20427;-38
2022/01/09 05:44:05;;;;;;;37.47;5.80;;;5.60;99.90;;;;;;5048866;28;20052;-37
2022/01/09 05:46:30;;;;;;;40.03;6.83;;;5.70;99.90;;;;;;5037115;28;20515;-38
2022/01/09 05:48:56;;;;;;;31.87;5.90;;;5.60;99.90;;;;;;5028862;28;20055;-38
2022/01/09 05:51:22;;;;;;;28.67;5.40;;;5.60;99.90;;;;;;5049773;28;20045;-38
2022/01/09 05:53:47;;;;;;;30.67;5.80;;;5.60;99.90;;;;;;5067170;28;20040;-37
2022/01/09 05:56:13;;;;;;;29.23;5.67;;;5.60;99.90;;;;;;5059355;28;20060;-39
2022/01/09 05:58:39;;;;;;;38.13;5.90;;;5.60;99.90;;;;;;5062142;28;20082;-38
2022/01/09 06:01:06;;;;;;;37.03;6.03;;;5.60;99.90;;;;;;5062047;28;20045;-37
2022/01/09 06:03:31;;;;;;;39.97;6.17;;;5.60;99.90;;;;;;5048116;28;20102;-37
2022/01/09 06:05:57;;;;;;;29.50;5.47;;;5.60;99.90;;;;;;5049229;28;20046;-34
2022/01/09 06:08:23;;;;;;;35.90;5.93;;;5.50;99.90;;;;;;5032426;28;20450;-38
2022/01/09 06:10:49;;;;;;;25.00;5.87;;;5.60;99.90;;;;;;5048659;28;20144;-37
2022/01/09 06:13:15;;;;;;;27.80;5.17;;;5.60;99.90;;;;;;5046706;28;20045;-38
2022/01/09 06:15:40;;;;;;;34.20;5.50;;;5.60;99.90;;;;;;5048759;28;20103;-37
2022/01/09 06:18:06;;;;;;;34.50;5.10;;;5.60;99.90;;;;;;5032576;28;20052;-37
2022/01/09 06:20:32;;;;;;;36.10;5.63;;;5.50;99.90;;;;;;5047297;28;20095;-38
2022/01/09 06:22:58;;;;;;;29.67;5.00;;;5.50;99.90;;;;;;5046419;28;20045;-37
2022/01/09 06:25:24;;;;;;;31.17;5.00;;;5.50;99.90;;;;;;5043322;28;20099;-37
2022/01/09 06:27:49;;;;;;;21.33;4.90;;;5.50;99.90;;;;;;5017562;28;20075;-37
2022/01/09 06:30:15;;;;;;;26.33;5.03;;;5.50;99.90;;;;;;5043512;28;20056;-38
2022/01/09 06:32:41;;;;;;;35.90;4.93;;;5.50;99.90;;;;;;5035436;28;20037;-37
2022/01/09 06:35:07;;;;;;;29.70;5.23;;;5.50;99.90;;;;;;5053606;28;20045;-37
2022/01/09 06:37:33;;;;;;;28.87;5.00;;;5.50;99.90;;;;;;5027001;28;20079;-37
2022/01/09 06:39:59;;;;;;;27.63;4.23;;;5.50;99.90;;;;;;5048123;28;20515;-37
2022/01/09 06:42:25;;;;;;;30.13;5.33;;;5.50;99.90;;;;;;5047879;28;20111;-38
2022/01/09 06:44:51;;;;;;;28.90;4.83;;;5.60;99.90;;;;;;5046946;28;20080;-37
2022/01/09 06:47:17;;;;;;;26.50;4.93;;;5.50;99.90;;;;;;5032557;28;20073;-37
2022/01/09 06:49:43;;;;;;;31.87;5.60;;;5.50;99.90;;;;;;5048034;28;20471;-38
2022/01/09 06:52:09;;;;;;;32.20;5.30;;;5.40;99.90;;;;;;5053901;28;20080;-37
2022/01/09 06:54:35;;;;;;;30.10;5.40;;;5.40;99.90;;;;;;5068484;28;20041;-37
2022/01/09 06:57:02;;;;;;;30.67;5.10;;;5.40;99.90;;;;;;5052659;28;20056;-38
2022/01/09 06:59:27;;;;;;;32.77;5.17;;;5.40;99.90;;;;;;5065699;28;20065;-37
2022/01/09 07:01:53;;;;;;;27.43;5.23;;;5.40;99.90;;;;;;5053175;28;20044;-37
2022/01/09 07:04:18;;;;;;;18.90;4.60;;;5.40;99.90;;;;;;5046976;28;20488;-37
2022/01/09 07:06:44;;;;;;;32.63;4.70;;;5.40;99.90;;;;;;5032690;28;20241;-38
2022/01/09 07:09:10;;;;;;;23.43;4.40;;;5.40;99.90;;;;;;5046807;28;20106;-36
2022/01/09 07:11:35;;;;;;;22.00;4.40;;;5.40;99.90;;;;;;5047979;28;20045;-38
2022/01/09 07:14:01;;;;;;;29.23;5.10;;;5.50;99.90;;;;;;5045598;28;20128;-37
2022/01/09 07:16:27;;;;;;;28.37;5.13;;;5.40;99.90;;;;;;5035830;28;20905;-37
2022/01/09 07:18:53;;;;;;;22.63;4.67;;;5.40;99.90;;;;;;5044205;28;20076;-38
2022/01/09 07:21:18;;;;;;;31.57;4.67;;;5.40;99.90;;;;;;5068172;28;20095;-38
2022/01/09 07:23:44;;;;;;;27.80;4.90;;;5.30;99.90;;;;;;5066891;28;20102;-37
2022/01/09 07:26:11;;;;;;;19.63;4.23;;;5.30;99.90;;;;;;5061925;28;20044;-37
2022/01/09 07:28:36;;;;;;;27.27;4.40;;;5.30;99.90;;;;;;5040880;28;20099;-38
2022/01/09 07:31:02;;;;;;;26.90;4.33;;;5.30;99.90;;;;;;5064100;28;20060;-38
2022/01/09 07:33:30;;;;;;;30.40;5.03;;;5.30;99.90;;;;;;5068945;28;20089;-37
2022/01/09 07:35:56;;;;;;;39.90;8.43;;;5.30;99.90;;;;;;5062692;28;20059;-38
2022/01/09 07:38:22;;;;;;;27.60;5.40;;;5.30;99.90;;;;;;5052252;28;20059;-38
2022/01/09 07:40:47;;;;;;;25.40;4.50;;;5.30;99.90;;;;;;5067633;28;20419;-37
2022/01/09 07:43:13;;;;;;;27.40;5.67;;;5.20;99.90;;;;;;5048658;28;20068;-36
2022/01/09 07:45:39;;;;;;;24.97;5.30;;;5.20;99.90;;;;;;5049263;28;20138;-38
2022/01/09 07:48:06;;;;;;;19.53;4.37;;;5.20;99.90;;;;;;5051272;28;20041;-37
2022/01/09 07:50:32;;;;;;;22.80;4.87;;;5.20;99.90;;;;;;5067613;28;20222;-37
2022/01/09 07:52:58;;;;;;;28.13;4.90;;;5.20;99.90;;;;;;5062147;28;20110;-38
2022/01/09 07:55:24;;;;;;;30.07;4.90;;;5.20;99.90;;;;;;5069366;28;20048;-38
2022/01/09 07:57:51;;;;;;;30.17;4.27;;;5.10;99.90;;;;;;5071056;28;20164;-37
2022/01/09 08:00:18;;;;;;;24.43;4.43;;;5.10;99.90;;;;;;5068956;28;20481;-37
2022/01/09 08:02:44;;;;;;;19.87;3.80;;;5.10;99.90;;;;;;5070769;28;20384;-37
2022/01/09 08:05:11;;;;;;;23.83;4.23;;;5.10;99.90;;;;;;5053043;28;20048;-36
2022/01/09 08:07:38;;;;;;;26.83;4.40;;;5.10;99.90;;;;;;5055000;28;20495;-37
2022/01/09 08:10:04;;;;;;;26.47;4.00;;;5.10;99.90;;;;;;5071058;28;20048;-37
2022/01/09 08:12:30;;;;;;;25.23;4.20;;;5.00;99.90;;;;;;5070347;28;20045;-38
2022/01/09 08:14:56;;;;;;;20.70;3.90;;;5.10;99.90;;;;;;5070957;28;20373;-37
2022/01/09 08:17:21;;;;;;;18.57;4.20;;;5.00;99.90;;;;;;5054890;28;20040;-38
2022/01/09 08:19:47;;;;;;;23.03;3.57;;;5.00;99.90;;;;;;5070209;28;20531;-38
2022/01/09 08:22:13;;;;;;;24.80;3.90;;;5.00;99.90;;;;;;5069887;28;20055;-38
2022/01/09 08:24:39;;;;;;;16.07;3.67;;;5.00;99.90;;;;;;5066811;28;20055;-37
2022/01/09 08:27:06;;;;;;;20.83;3.83;;;5.00;99.90;;;;;;5046043;28;20078;-37
2022/01/09 08:29:32;;;;;;;21.43;3.33;;;5.00;99.90;;;;;;5056630;28;20048;-37
2022/01/09 08:31:58;;;;;;;20.90;3.50;;;4.90;99.90;;;;;;5051101;28;20048;-38
2022/01/09 08:34:23;;;;;;;25.30;4.03;;;4.90;99.90;;;;;;5063056;28;20407;-38
2022/01/09 08:36:49;;;;;;;27.83;4.03;;;4.90;99.90;;;;;;5051337;28;20044;-37
2022/01/09 08:39:15;;;;;;;20.47;3.47;;;4.90;99.90;;;;;;5068703;28;20037;-37
2022/01/09 08:41:40;;;;;;;17.00;3.70;;;4.90;99.90;;;;;;5069502;28;20072;-37
2022/01/09 08:44:07;;;;;;;20.07;3.33;;;4.90;99.90;;;;;;5068358;28;20051;-38
2022/01/09 08:46:34;;;;;;;23.43;4.10;;;4.90;99.90;;;;;;5055778;28;20048;-37
2022/01/09 08:49:01;;;;;;;16.67;3.47;;;4.90;99.90;;;;;;5066404;28;20600;-37
2022/01/09 08:51:27;;;;;;;20.87;3.60;;;4.90;99.90;;;;;;5070222;28;20609;-37
2022/01/09 08:53:54;;;;;;;21.07;3.60;;;4.90;99.90;;;;;;5063554;28;20133;-37
2022/01/09 08:56:22;;;;;;;26.00;3.60;;;4.90;99.90;;;;;;5056004;28;20189;-38
2022/01/09 08:58:48;;;;;;;22.87;3.30;;;4.90;99.90;;;;;;5063962;28;20043;-38
2022/01/09 09:01:15;;;;;;;16.73;3.80;;;4.90;99.90;;;;;;5068838;28;20044;-37
2022/01/09 09:03:41;;;;;;;20.93;3.77;;;4.90;99.90;;;;;;5068348;28;20241;-37
2022/01/09 09:06:12;;;;;;;16.43;3.77;;;4.90;99.90;;;;;;5065649;28;20048;-38
2022/01/09 09:08:39;;;;;;;17.23;3.20;;;4.90;99.90;;;;;;5061388;28;20057;-37
2022/01/09 09:11:05;;;;;;;23.93;3.53;;;4.90;99.90;;;;;;5062773;28;20056;-37
2022/01/09 09:13:31;;;;;;;21.80;3.50;;;4.90;99.90;;;;;;5048443;28;20531;-36
2022/01/09 09:15:57;;;;;;;15.07;3.53;;;4.90;99.90;;;;;;5036922;28;20037;-37
2022/01/09 09:18:23;;;;;;;16.60;3.07;;;4.90;99.90;;;;;;5023367;28;20048;-37
2022/01/09 09:20:48;;;;;;;19.90;3.23;;;4.90;99.90;;;;;;5056094;28;20048;-38
2022/01/09 09:23:14;;;;;;;12.80;3.07;;;4.90;99.90;;;;;;5065971;28;20048;-37
2022/01/09 09:25:40;;;;;;;18.20;3.00;;;4.90;99.90;;;;;;5067224;28;20341;-37
2022/01/09 09:28:06;;;;;;;22.00;3.03;;;5.00;99.90;;;;;;5050900;28;20484;-37
2022/01/09 09:30:31;;;;;;;15.70;3.30;;;5.00;99.90;;;;;;5077238;28;20553;-38
2022/01/09 09:32:57;;;;;;;16.63;2.93;;;5.00;99.90;;;;;;5086041;28;20591;-37
2022/01/09 09:35:23;;;;;;;20.57;2.97;;;5.00;99.90;;;;;;5085085;28;20044;-38
2022/01/09 09:37:49;;;;;;;14.63;2.53;;;5.00;99.90;;;;;;5051284;28;20048;-37
2022/01/09 09:40:15;;;;;;;19.10;3.20;;;5.00;99.90;;;;;;5067060;28;20040;-37
2022/01/09 09:42:41;;;;;;;14.40;2.30;;;5.00;99.90;;;;;;5048127;28;20044;-36
2022/01/09 09:45:10;;;;;;;17.17;2.70;;;5.00;99.90;;;;;;5066544;28;20131;-37
2022/01/09 09:47:37;;;;;;;16.30;2.80;;;5.00;99.90;;;;;;5050171;28;20056;-37
2022/01/09 09:50:12;;;;;;;18.70;2.70;;;5.00;99.90;;;;;;5066584;28;20044;-37
2022/01/09 09:52:40;;;;;;;17.03;3.00;;;5.00;99.90;;;;;;5073229;28;20495;-37
2022/01/09 09:55:06;;;;;;;15.93;2.90;;;5.10;99.90;;;;;;5066236;28;20099;-38
2022/01/09 09:57:31;;;;;;;17.47;3.07;;;5.00;99.90;;;;;;5033758;28;20051;-36
2022/01/09 10:00:03;;;;;;;17.67;2.80;;;5.10;99.90;;;;;;5049172;28;20040;-37
2022/01/09 10:02:58;;;;;;;19.67;3.10;;;5.10;99.90;;;;;;5062705;28;20044;-37
2022/01/09 10:05:35;;;;;;;20.33;2.90;;;5.10;99.90;;;;;;5063752;28;20040;-37
2022/01/09 10:08:10;;;;;;;17.17;3.00;;;5.10;99.90;;;;;;5031645;28;20098;-37
2022/01/09 10:10:37;;;;;;;17.23;2.47;;;5.20;99.90;;;;;;5061996;28;20437;-38
2022/01/09 10:13:15;;;;;;;19.57;3.30;;;5.10;99.90;;;;;;5060831;28;20647;-37
2022/01/09 10:15:55;;;;;;;18.53;3.67;;;5.10;99.90;;;;;;5064819;28;20071;-38
2022/01/09 10:18:44;;;;;;;14.80;2.77;;;5.20;99.90;;;;;;5027721;28;20041;-38
2022/01/09 10:21:15;;;;;;;19.30;2.77;;;5.10;99.90;;;;;;5063569;28;20061;-37
2022/01/09 10:23:55;;;;;;;11.30;2.78;;;5.20;99.90;;;;;;5062572;28;20049;-37
2022/01/09 10:26:21;;;;;;;13.37;2.47;;;5.20;99.90;;;;;;5052674;28;20041;-37
2022/01/09 10:28:47;;;;;;;17.87;2.80;;;5.20;99.90;;;;;;5055611;28;20723;-37
2022/01/09 10:31:17;;;;;;;16.93;2.93;;;5.30;99.90;;;;;;5064468;28;20521;-37
2022/01/09 10:34:06;;;;;;;18.63;2.83;;;5.30;99.90;;;;;;5061273;28;20400;-36
2022/01/09 10:36:37;;;;;;;13.97;2.80;;;5.30;99.90;;;;;;5046672;28;20053;-38
2022/01/09 10:39:04;;;;;;;;;;;5.30;99.90;;;;;;5054627;28;20083;-37
2022/01/09 10:41:48;;;;;;;19.07;3.67;;;5.40;99.90;;;;;;5064295;28;19999;-37
2022/01/09 10:44:16;;;;;;;14.33;2.70;;;5.40;99.90;;;;;;5063416;28;20053;-37
2022/01/09 10:46:55;;;;;;;18.57;3.40;;;5.40;99.90;;;;;;5051634;28;21001;-38
2022/01/09 10:49:21;;;;;;;21.43;3.00;;;5.50;99.90;;;;;;5060801;28;20044;-37
2022/01/09 10:51:47;;;;;;;14.77;2.93;;;5.50;99.90;;;;;;5067941;28;20431;-38
2022/01/09 10:54:30;;;;;;;18.23;3.70;;;5.50;99.90;;;;;;5061038;28;20044;-38
2022/01/09 10:57:20;;;;;;;14.13;3.27;;;5.50;99.90;;;;;;5046909;28;20044;-37
2022/01/09 10:59:46;;;;;;;14.83;3.40;;;5.50;99.90;;;;;;5063412;28;20125;-38
2022/01/09 11:02:12;;;;;;;19.03;3.33;;;5.50;99.90;;;;;;5063437;28;20037;-37
2022/01/09 11:04:43;;;;;;;18.57;2.80;;;5.50;99.90;;;;;;5064924;28;20079;-38
2022/01/09 11:07:10;;;;;;;18.90;3.13;;;5.50;99.90;;;;;;5015263;28;20053;-38
2022/01/09 11:09:41;;;;;;;20.30;3.77;;;5.50;99.90;;;;;;5049651;28;20115;-38
2022/01/09 11:12:08;;;;;;;21.58;3.83;;;5.50;99.90;;;;;;5053355;28;20511;-37
2022/01/09 11:14:41;;;;;;;15.33;2.70;;;5.50;99.90;;;;;;5042559;28;20064;-36
2022/01/09 11:17:08;;;;;;;18.50;2.57;;;5.50;99.90;;;;;;5039466;28;20040;-37
2022/01/09 11:19:35;;;;;;;13.17;2.70;;;5.50;99.90;;;;;;5063671;28;20068;-38
2022/01/09 11:22:05;;;;;;;14.30;3.07;;;5.50;99.90;;;;;;5065373;28;20059;-37
2022/01/09 11:24:52;;;;;;;15.53;3.03;;;5.50;99.90;;;;;;5063355;28;20044;-38
2022/01/09 11:27:23;;;;;;;17.53;3.23;;;5.60;99.90;;;;;;5046109;28;20051;-37
2022/01/09 11:30:14;;;;;;;14.65;2.92;;;5.60;99.90;;;;;;5062859;28;20041;-37
2022/01/09 11:33:13;;;;;;;15.93;3.27;;;5.60;99.90;;;;;;5060608;28;20049;-38
2022/01/09 11:36:17;;;;;;;19.17;3.50;;;5.70;99.90;;;;;;5066393;28;20044;-38
2022/01/09 11:39:13;;;;;;;21.13;2.97;;;5.80;99.90;;;;;;5044571;28;20047;-37
2022/01/09 11:41:43;;;;;;;19.43;3.00;;;5.80;99.90;;;;;;5049040;28;20053;-37
2022/01/09 11:44:12;;;;;;;14.75;3.13;;;5.80;99.90;;;;;;5048247;28;20049;-38
2022/01/09 11:47:02;;;;;;;20.93;3.37;;;6.00;99.90;;;;;;5005849;28;20454;-37
2022/01/09 11:49:31;;;;;;;19.93;3.60;;;5.90;99.90;;;;;;5063316;28;20053;-37
2022/01/09 11:51:59;;;;;;;16.70;3.37;;;5.90;99.90;;;;;;5059647;28;20045;-38
2022/01/09 11:54:26;;;;;;;18.73;2.90;;;6.00;99.90;;;;;;5045581;28;20392;-37
2022/01/09 11:56:52;;;;;;;14.80;3.20;;;6.10;99.90;;;;;;5040474;28;20385;-37
2022/01/09 11:59:36;;;;;;;21.50;3.47;;;6.20;99.90;;;;;;5062454;28;20105;-38
2022/01/09 12:02:05;;;;;;;16.10;3.43;;;6.30;99.90;;;;;;5070159;28;20124;-38
2022/01/09 12:04:30;;;;;;;15.73;2.97;;;6.30;99.90;;;;;;5046180;28;20040;-38
2022/01/09 12:06:57;;;;;;;16.77;3.10;;;6.40;99.90;;;;;;5051378;28;20064;-38
2022/01/09 12:09:33;;;;;;;14.77;3.20;;;6.40;99.90;;;;;;5047775;28;20056;-38
2022/01/09 12:12:09;;;;;;;18.80;3.10;;;6.40;99.90;;;;;;5049212;28;20403;-38
2022/01/09 12:14:56;;;;;;;17.37;2.83;;;6.40;99.90;;;;;;5067483;28;20048;-37
2022/01/09 12:17:28;;;;;;;18.43;3.17;;;6.40;99.90;;;;;;5051745;28;20053;-38
2022/01/09 12:19:55;;;;;;;17.87;2.80;;;6.50;99.90;;;;;;5030400;28;20569;-38
2022/01/09 12:25:25;;;;;;;17.67;3.03;;;6.50;99.90;;;;;;5071595;28;20357;-37
2022/01/09 12:28:18;;;;;;;23.47;3.50;;;6.50;99.90;;;;;;5043854;28;20064;-37
2022/01/09 12:31:00;;;;;;;17.67;2.90;;;6.50;99.90;;;;;;5052440;28;20057;-38
2022/01/09 12:33:31;;;;;;;12.70;2.83;;;6.50;99.90;;;;;;5067009;28;20515;-36
2022/01/09 12:35:59;;;;;;;20.70;3.63;;;6.60;99.90;;;;;;5068292;28;20894;-37
2022/01/09 12:38:27;;;;;;;17.63;3.43;;;6.60;99.90;;;;;;5053041;28;20059;-37
2022/01/09 12:40:58;;;;;;;14.37;3.27;;;6.60;99.90;;;;;;5068590;28;20585;-37
2022/01/09 12:43:26;;;;;;;18.70;3.95;;;6.70;99.90;;;;;;5067901;28;20066;-37
2022/01/09 12:45:52;;;;;;;18.90;3.43;;;6.70;99.90;;;;;;5070889;28;20112;-38
2022/01/09 12:48:20;;;;;;;13.23;3.23;;;6.70;99.90;;;;;;5052099;28;20053;-38
2022/01/09 12:50:47;;;;;;;17.93;4.00;;;6.70;99.90;;;;;;5069171;28;20045;-38
2022/01/09 12:53:23;;;;;;;19.43;3.43;;;6.70;99.90;;;;;;5053001;28;20127;-38
2022/01/09 12:55:59;;;;;;;15.23;2.83;;;6.70;99.90;;;;;;5068599;28;20048;-38